Terminal Aerodrome Forecast
Issued by NWS Mt. Holly, NJ

Home | Current Version | Previous Version | Text Only | Print | Product List | Glossary On
Versions: 1 2 3 4 5 6 7 8 9 10 11 12 13 14 15 16 17 18 19 20 21 22 23 24 25
000
FTUS41 KPHI 041321 AAA
TAFACY
TAF AMD
KACY 041321Z 0413/0512 05010KT 4SM BR OVC004
     FM041600 07010KT 4SM -SHRA BR OVC004
      TEMPO 0416/0420 1SM RA BR OVC002
     FM042100 05010KT 2SM -DZ BR OVC004=

USA.gov is the U.S. government's official web portal to all federal, state and local government web resources and services.